d.16/8 - Nu er de lyse nætter slut. Synlige planeter lige efter solnedgang, ikke så højt over horisonten: Jupiter mod sydvest, Saturn lidt sydligere og Mars mod sydøst.


Vejr3>N more information Vejr3>N


Vejr3>V more information Vejr3>V


rain radar more information rain snow radar


visit our other weather sites:

Template dokumentation
og downloads

And another site


nearby metar reports

   
EKRK - Roskilde
updated: 14-11-2018 02:50
mostly cloudy  
mostly cloudy  
   wind: west 5.1 m/s
wind: west 5.1 m/s
temperature: 10°C
wind chill: 8°C
dew point: 8°C
humidity: 88%
barometer: 1021 hPa
clouds: Mostly Cloudy
visibility: 10 km
cloud details: few clouds 304.8 m,
mostly cloudy 1463 m
EKRK 140150Z AUTO 27010KT 9999NDV FEW010/// BKN048/// 10/08 Q1021
EKCH - Copenhagen
updated: 14-11-2018 02:50
mostly cloudy  
mostly cloudy  
   wind: west 4.6 m/s
wind: west 4.6 m/s
temperature: 10°C
wind chill: 8°C
dew point: 8°C
humidity: 88%
barometer: 1021 hPa
clouds: Mostly Cloudy
visibility: More than 10 km
cloud details: few clouds 426.7 m,
mostly cloudy 1585 m
EKCH 140150Z 26009KT 9999 FEW014 BKN052 10/08 Q1021 NOSIG
EHBK - Maastricht
updated: 14-11-2018 02:55
partly cloudy  
partly cloudy  
   wind: south 4.1 m/s
wind: south 4.1 m/s
temperature: 7°C
wind chill: 4°C
dew point: 6°C
humidity: 93%
barometer: 1029 hPa
clouds: Partly Cloudy
visibility: More than 10 km
cloud details: partly cloudy m
EHBK 140155Z AUTO 19008KT 9999 NSC 07/06 Q1029
ELLX - Luxemburg
updated: 14-11-2018 02:50
clear  
clear  
   wind: sse 1.5 m/s
wind: sse 1.5 m/s
temperature: 5°C
wind chill: 4°C
dew point: 5°C
humidity: 100%
barometer: 1030 hPa
clouds: Clear
cloud details: clear m
ELLX 140150Z AUTO 16003KT //// R24/0450V1300D // NCD 05/05 Q1030 NOSIG
  

script developed by  Saratoga-weather.org adapted for the template by  Weerstation Leuven

you find our weather info also at:

European Weather Network

Weather Underground

AWEKAS

WeatherlinkIP

Citizen Weather Observer Program (CWOP)

equipment we use:

weather-station
Davis VP2+

weather-program
Weather Display

weather-server
Dell E6400

provider
Webhosting.dk

Davis VP2+

Weather Display

Dell E6400

Webhosting.dk